Time;durP1;ratioP1;P1;durP2;ratioP2;P2;SDS_P1;SDS_P2;PMS_P1;PMS_P2;Temp;Humidity;BMP_temperature;BMP_pressure;BME280_temperature;BME280_humidity;BME280_pressure;Samples;Min_cycle;Max_cycle;Signal;HPM_P1;HPM_P2
2022/06/03 14:20:23;;;;;;;2.30;0.90;;;24.20;82.50;;;;;;5077499;27;20455;-83
2022/06/03 14:23:25;;;;;;;2.88;1.10;;;23.90;82.60;;;;;;5077396;28;20044;-82
2022/06/03 14:26:17;;;;;;;3.72;1.10;;;23.90;79.00;;;;;;5076306;28;20053;-83
2022/06/03 14:28:55;;;;;;;5.07;1.00;;;23.80;81.40;;;;;;5068818;28;20040;-84
2022/06/03 14:31:35;;;;;;;2.40;0.82;;;23.80;83.50;;;;;;5054537;28;20060;-84
2022/06/03 14:34:15;;;;;;;3.22;0.70;;;23.60;83.30;;;;;;5053056;28;20510;-83
2022/06/03 14:36:42;;;;;;;3.92;0.88;;;23.60;83.80;;;;;;5067012;28;20063;-83
2022/06/03 14:39:16;;;;;;;3.63;0.98;;;23.50;85.80;;;;;;5060206;28;20487;-83
2022/06/03 14:41:45;;;;;;;3.95;1.13;;;23.30;85.20;;;;;;5059371;28;20047;-83
2022/06/03 14:44:14;;;;;;;4.47;0.70;;;23.30;85.80;;;;;;5071402;28;20080;-84
2022/06/03 14:46:53;;;;;;;3.67;1.00;;;23.30;87.20;;;;;;5071485;28;20386;-82
2022/06/03 14:49:25;;;;;;;4.05;1.02;;;23.20;87.00;;;;;;5069389;28;20962;-85
2022/06/03 14:52:17;;;;;;;2.25;0.82;;;23.20;87.70;;;;;;5048133;28;20041;-86
2022/06/03 14:54:54;;;;;;;3.47;0.75;;;23.20;87.10;;;;;;5070986;28;20041;-86
2022/06/03 14:57:30;;;;;;;6.15;1.98;;;23.10;87.10;;;;;;5048430;28;20128;-86
2022/06/03 15:00:26;;;;;;;2.78;0.90;;;23.10;86.60;;;;;;5053132;28;20087;-87
2022/06/03 15:03:01;;;;;;;2.45;0.90;;;23.00;85.60;;;;;;5074664;28;20048;-85
2022/06/03 15:05:29;;;;;;;4.50;0.80;;;22.80;83.50;;;;;;5076757;28;20044;-86
2022/06/03 15:07:58;;;;;;;3.10;0.93;;;22.70;85.60;;;;;;5069834;28;20087;-75
2022/06/03 15:10:26;;;;;;;4.03;0.90;;;22.50;85.90;;;;;;5065016;28;20387;-76
2022/06/03 15:12:58;;;;;;;2.53;0.70;;;22.40;86.20;;;;;;5054723;28;20044;-84
2022/06/03 15:15:35;;;;;;;9.52;1.60;;;22.10;85.40;;;;;;5068285;28;20040;-85
2022/06/03 15:18:16;;;;;;;3.55;0.70;;;22.00;85.30;;;;;;5083460;28;20060;-86
2022/06/03 15:20:55;;;;;;;1.58;0.70;;;21.90;86.60;;;;;;5062286;28;20094;-85
2022/06/03 15:23:24;;;;;;;2.08;0.70;;;21.80;87.20;;;;;;5065711;28;20041;-83
2022/06/03 15:25:54;;;;;;;2.20;0.80;;;21.60;85.30;;;;;;5068147;28;20102;-83
2022/06/03 15:28:24;;;;;;;3.28;1.00;;;21.60;87.70;;;;;;5062267;28;20081;-83
2022/06/03 15:31:04;;;;;;;3.28;0.90;;;21.40;87.60;;;;;;5049021;28;20041;-84
2022/06/03 15:33:35;;;;;;;3.50;0.85;;;21.30;87.20;;;;;;5054034;28;20395;-84
2022/06/03 15:36:26;;;;;;;1.60;0.82;;;21.30;88.80;;;;;;5053297;28;20048;-85
2022/06/03 15:38:55;;;;;;;2.42;0.77;;;21.20;89.30;;;;;;5048429;28;20069;-84
2022/06/03 15:41:27;;;;;;;2.50;0.90;;;21.20;89.90;;;;;;5033843;28;20254;-84
2022/06/03 15:43:55;;;;;;;3.95;0.88;;;21.10;89.20;;;;;;5034818;28;20087;-84
2022/06/03 15:46:27;;;;;;;3.03;0.93;;;21.10;89.90;;;;;;5045181;28;20049;-83
2022/06/03 15:48:56;;;;;;;4.43;1.00;;;21.00;89.10;;;;;;5044156;28;20106;-85
2022/06/03 15:51:21;;;;;;;2.90;1.05;;;21.00;89.50;;;;;;5057448;28;20863;-83
2022/06/03 15:53:59;;;;;;;3.85;1.30;;;21.00;90.10;;;;;;5052745;28;20049;-83
2022/06/03 15:56:56;;;;;;;2.65;0.82;;;21.00;89.10;;;;;;5050182;28;20083;-82
2022/06/03 15:59:31;;;;;;;3.30;0.80;;;21.00;86.00;;;;;;5046395;28;20088;-82
2022/06/03 16:02:18;;;;;;;2.00;0.68;;;20.90;85.90;;;;;;5048850;28;20057;-82
2022/06/03 16:05:12;;;;;;;4.82;0.82;;;20.80;86.00;;;;;;5065543;28;20398;-83
2022/06/03 16:08:20;;;;;;;8.43;0.80;;;20.80;88.50;;;;;;5068441;28;20056;-82
2022/06/03 16:11:03;;;;;;;3.95;1.10;;;20.80;87.30;;;;;;5032163;28;20481;-82
2022/06/03 16:13:47;;;;;;;2.95;1.23;;;20.70;90.00;;;;;;5045493;28;20080;-83
2022/06/03 16:16:34;;;;;;;2.83;1.23;;;20.60;90.70;;;;;;5047682;28;20498;-83
2022/06/03 16:19:16;;;;;;;4.85;1.08;;;20.60;91.60;;;;;;5053824;28;20513;-83
2022/06/03 16:21:51;;;;;;;4.75;1.25;;;20.60;91.70;;;;;;5051613;28;20045;-82
2022/06/03 16:24:30;;;;;;;4.85;1.42;;;20.60;91.60;;;;;;5065331;28;20053;-81
2022/06/03 16:27:30;;;;;;;4.72;1.40;;;20.40;91.30;;;;;;5040161;28;20081;-82
2022/06/03 16:30:00;;;;;;;4.35;1.13;;;20.20;91.30;;;;;;5037572;28;20496;-83
2022/06/03 16:32:44;;;;;;;5.20;1.27;;;20.10;92.10;;;;;;5057230;28;20048;-82
2022/06/03 16:35:29;;;;;;;4.13;1.27;;;20.10;92.80;;;;;;5070152;28;20106;-82
2022/06/03 16:38:13;;;;;;;3.58;1.45;;;20.10;92.90;;;;;;5069421;28;20398;-82
2022/06/03 16:41:00;;;;;;;4.82;1.38;;;20.10;92.90;;;;;;5062716;28;20454;-82
2022/06/03 16:43:41;;;;;;;5.28;1.45;;;20.10;93.10;;;;;;5066623;28;20387;-81
2022/06/03 16:46:57;;;;;;;5.22;1.20;;;20.10;92.90;;;;;;5048493;28;20072;-82
2022/06/03 16:49:37;;;;;;;2.90;0.90;;;20.00;93.40;;;;;;5022104;28;20505;-83
2022/06/03 16:52:07;;;;;;;3.30;1.00;;;20.00;93.20;;;;;;5044473;28;20056;-82
2022/06/03 16:54:55;;;;;;;3.00;1.40;;;19.90;93.40;;;;;;5047275;28;20033;-84
2022/06/03 16:57:24;;;;;;;3.92;1.30;;;20.00;93.70;;;;;;5047650;28;20052;-85
2022/06/03 17:00:05;;;;;;;4.78;1.35;;;20.00;93.70;;;;;;5056984;28;20051;-84
2022/06/03 17:02:31;;;;;;;4.40;1.45;;;19.90;93.90;;;;;;5049027;28;20049;-82
2022/06/03 17:04:57;;;;;;;6.20;1.70;;;19.80;94.30;;;;;;5060781;28;20041;-84
2022/06/03 17:07:36;;;;;;;4.75;1.58;;;19.80;94.80;;;;;;5065206;28;20044;-84
2022/06/03 17:10:05;;;;;;;5.03;1.77;;;19.70;95.50;;;;;;5040782;28;20084;-84
2022/06/03 17:12:32;;;;;;;4.78;1.63;;;19.60;95.10;;;;;;5051757;28;20724;-83
2022/06/03 17:14:57;;;;;;;5.35;1.70;;;19.50;95.30;;;;;;5052580;28;20049;-83
2022/06/03 17:17:30;;;;;;;8.38;2.28;;;19.50;95.70;;;;;;5049258;28;20119;-84
2022/06/03 17:20:10;;;;;;;6.18;1.55;;;19.40;96.20;;;;;;5040544;28;20511;-87
2022/06/03 17:23:07;;;;;;;3.83;1.63;;;19.30;96.60;;;;;;5054455;28;20052;-90
2022/06/03 17:25:54;;;;;;;3.88;1.58;;;19.20;96.60;;;;;;5058072;28;20061;-90
2022/06/03 17:28:42;;;;;;;3.45;1.60;;;19.20;97.00;;;;;;5052951;28;20040;-90
2022/06/03 17:31:29;;;;;;;5.82;1.70;;;19.10;97.70;;;;;;5060737;28;20053;-90
2022/06/03 17:34:07;;;;;;;2.85;1.30;;;19.00;97.40;;;;;;5061599;28;20037;-89
2022/06/03 17:36:37;;;;;;;5.72;1.52;;;18.90;97.60;;;;;;5065180;28;20483;-89
2022/06/03 17:39:32;;;;;;;6.60;2.03;;;18.80;98.00;;;;;;5055777;28;20056;-90
2022/06/03 17:42:40;;;;;;;6.38;1.80;;;18.70;98.60;;;;;;5054430;28;20040;-91
2022/06/03 17:45:24;;;;;;;8.50;1.70;;;18.60;98.70;;;;;;5066257;28;20050;-90
2022/06/03 17:48:41;;;;;;;7.47;1.85;;;18.50;99.40;;;;;;5048024;28;20068;-89
2022/06/03 17:57:16;;;;;;;5.40;2.03;;;18.20;99.90;;;;;;5048587;28;20449;-85
2022/06/03 18:00:05;;;;;;;6.13;2.05;;;18.10;99.90;;;;;;5045676;28;20057;-85
2022/06/03 18:02:57;;;;;;;8.13;2.05;;;18.10;99.90;;;;;;5059981;28;20500;-87
2022/06/03 18:05:37;;;;;;;4.72;2.20;;;18.00;99.90;;;;;;5054610;28;20091;-87
2022/06/03 18:08:16;;;;;;;4.32;2.10;;;17.90;99.90;;;;;;5055535;28;20049;-87
2022/06/03 18:10:44;;;;;;;5.22;2.03;;;17.90;99.90;;;;;;5055995;28;20053;-86
2022/06/03 18:13:31;;;;;;;7.07;2.30;;;17.90;99.90;;;;;;5052383;28;20037;-88
2022/06/03 18:15:59;;;;;;;7.25;2.58;;;17.80;99.90;;;;;;5064415;28;20056;-86
2022/06/03 18:18:28;;;;;;;4.75;2.40;;;17.80;99.90;;;;;;5052863;28;20054;-87
2022/06/03 18:20:53;;;;;;;5.57;2.22;;;17.80;99.90;;;;;;5043938;28;20523;-87
2022/06/03 18:23:46;;;;;;;7.57;2.53;;;17.70;99.90;;;;;;5056626;28;20099;-86
2022/06/03 18:26:40;;;;;;;8.02;2.40;;;17.70;99.90;;;;;;5074763;28;20513;-87
2022/06/03 18:29:28;;;;;;;5.73;1.97;;;17.60;99.90;;;;;;5047665;28;20122;-86
2022/06/03 18:32:00;;;;;;;4.88;2.40;;;17.70;99.90;;;;;;5054960;28;20646;-86
2022/06/03 18:34:53;;;;;;;3.92;2.42;;;17.60;99.90;;;;;;5054292;28;20042;-86
2022/06/03 18:37:22;;;;;;;6.22;2.13;;;17.60;99.90;;;;;;5048708;28;20048;-87
2022/06/03 18:40:19;;;;;;;3.83;1.90;;;17.50;99.90;;;;;;5064107;28;20398;-86
2022/06/03 18:43:18;;;;;;;7.40;2.50;;;17.50;99.90;;;;;;5051109;28;20049;-86
2022/06/03 18:46:19;;;;;;;4.80;2.10;;;17.40;99.90;;;;;;5052691;28;20135;-86
2022/06/03 18:48:59;;;;;;;4.68;2.10;;;17.40;99.90;;;;;;5056450;28;20046;-85
2022/06/03 18:51:47;;;;;;;5.18;2.67;;;17.30;99.90;;;;;;5039485;28;20080;-86
2022/06/03 18:54:38;;;;;;;5.45;2.10;;;17.20;99.90;;;;;;5067193;28;20105;-86
2022/06/03 18:57:09;;;;;;;6.18;2.20;;;17.20;99.90;;;;;;5047110;28;20042;-86
2022/06/03 19:00:16;;;;;;;6.22;1.90;;;17.20;99.90;;;;;;5053377;28;20091;-86
2022/06/03 19:03:26;;;;;;;6.47;1.75;;;17.10;99.90;;;;;;5011845;28;20060;-85
2022/06/03 19:06:26;;;;;;;5.05;1.75;;;17.00;99.90;;;;;;5041089;28;20056;-86
2022/06/03 19:09:16;;;;;;;4.28;1.77;;;16.90;99.90;;;;;;5046584;28;20045;-85
2022/06/03 19:12:00;;;;;;;3.22;1.73;;;16.80;99.90;;;;;;5049835;28;20514;-85
2022/06/03 19:14:47;;;;;;;7.82;1.92;;;16.80;99.90;;;;;;5037976;28;20112;-85
2022/06/03 19:17:50;;;;;;;5.65;2.03;;;16.60;99.90;;;;;;5051179;28;20071;-84
2022/06/03 19:20:46;;;;;;;5.88;2.53;;;16.60;99.90;;;;;;5063701;28;20059;-84
2022/06/03 19:23:59;;;;;;;9.10;2.25;;;16.50;99.90;;;;;;5049237;28;20037;-85
2022/06/03 19:26:34;;;;;;;5.50;2.33;;;16.40;99.90;;;;;;5048414;28;20072;-85
2022/06/03 19:29:13;;;;;;;6.22;2.30;;;16.30;99.90;;;;;;5055576;28;20079;-85
2022/06/03 19:31:46;;;;;;;7.07;2.60;;;16.20;99.90;;;;;;5051372;28;20488;-85
2022/06/03 19:34:16;;;;;;;5.50;2.67;;;16.20;99.90;;;;;;5044126;28;20053;-86
2022/06/03 19:36:59;;;;;;;4.90;1.98;;;16.10;99.90;;;;;;5053703;28;20105;-85
2022/06/03 19:39:40;;;;;;;4.55;2.17;;;16.10;99.90;;;;;;5056377;28;20057;-87
2022/06/03 19:42:29;;;;;;;6.07;2.17;;;16.00;99.90;;;;;;5059556;28;20045;-85
2022/06/03 19:45:16;;;;;;;4.72;2.13;;;15.90;99.90;;;;;;5048232;28;20060;-85
2022/06/03 19:48:19;;;;;;;5.15;2.30;;;15.80;99.90;;;;;;5061875;28;20045;-84
2022/06/03 19:51:01;;;;;;;7.07;2.47;;;15.70;99.90;;;;;;5050855;28;20041;-86
2022/06/03 19:54:01;;;;;;;5.18;2.83;;;15.60;99.90;;;;;;5048580;28;20600;-86
2022/06/03 19:56:27;;;;;;;6.63;2.47;;;15.50;99.90;;;;;;5058445;28;20059;-86
2022/06/03 19:58:56;;;;;;;7.40;2.60;;;15.40;99.90;;;;;;5047622;28;20057;-86
2022/06/03 20:01:39;;;;;;;6.43;2.20;;;15.30;99.90;;;;;;5056315;28;20475;-86
2022/06/03 20:04:21;;;;;;;5.03;2.70;;;15.30;99.90;;;;;;5044276;28;20388;-86
2022/06/03 20:06:54;;;;;;;6.22;2.65;;;15.20;99.90;;;;;;5056724;28;20048;-84
2022/06/03 20:09:48;;;;;;;4.97;2.88;;;15.10;99.90;;;;;;5054633;28;20120;-84
2022/06/03 20:15:08;;;;;;;5.00;2.67;;;15.00;99.90;;;;;;5047878;28;20053;-83
2022/06/03 20:17:48;;;;;;;7.50;3.78;;;15.00;99.90;;;;;;5041574;28;20058;-87
2022/06/03 20:20:24;;;;;;;6.35;3.25;;;14.90;99.90;;;;;;5076948;28;20053;-87
2022/06/03 20:22:59;;;;;;;5.00;3.00;;;14.90;99.90;;;;;;5047751;28;20119;-85
2022/06/03 20:25:49;;;;;;;7.63;3.47;;;14.80;99.90;;;;;;5041900;28;20116;-86
2022/06/03 20:28:40;;;;;;;6.28;3.42;;;14.80;99.90;;;;;;5060240;28;20045;-87
2022/06/03 20:31:33;;;;;;;8.88;3.60;;;14.90;99.90;;;;;;5066878;28;20135;-86
2022/06/03 20:34:03;;;;;;;10.70;3.40;;;14.70;99.90;;;;;;5054254;28;20037;-85
2022/06/03 20:36:47;;;;;;;5.70;2.97;;;14.60;99.90;;;;;;5060405;28;20513;-85
2022/06/03 20:39:25;;;;;;;7.43;3.67;;;14.50;99.90;;;;;;5052276;28;20126;-85
2022/06/03 20:42:30;;;;;;;9.73;3.70;;;14.40;99.90;;;;;;5051317;28;20048;-86
2022/06/03 20:44:56;;;;;;;;;;;14.30;99.90;;;;;;5067123;28;20040;-86
2022/06/03 20:47:39;;;;;;;7.43;3.20;;;14.30;99.90;;;;;;5071493;28;20026;-86
2022/06/03 20:50:19;;;;;;;7.45;3.63;;;14.20;99.90;;;;;;5044651;28;20041;-86
2022/06/03 20:53:22;;;;;;;6.85;3.28;;;14.20;99.90;;;;;;5055791;28;20106;-85
2022/06/03 20:55:48;;;;;;;5.50;3.20;;;14.20;99.90;;;;;;5025775;28;20052;-85
2022/06/03 20:58:24;;;;;;;6.32;4.03;;;14.10;99.90;;;;;;5040042;28;20040;-85
2022/06/03 21:01:02;;;;;;;6.38;3.70;;;14.00;99.90;;;;;;5060863;28;20048;-85
2022/06/03 21:14:32;;;;;;;9.23;4.63;;;13.80;99.90;;;;;;5053289;28;20593;-84
2022/06/03 21:16:58;;;;;;;7.93;4.07;;;13.80;99.90;;;;;;5047619;28;20037;-86
2022/06/03 21:19:25;;;;;;;11.52;4.50;;;13.80;99.90;;;;;;5052983;28;20099;-86
2022/06/03 21:22:04;;;;;;;8.68;4.40;;;13.70;99.90;;;;;;5067212;28;20200;-86
2022/06/03 21:24:48;;;;;;;7.43;4.97;;;13.70;99.90;;;;;;5051235;28;20104;-86
2022/06/03 21:27:15;;;;;;;8.90;4.18;;;13.70;99.90;;;;;;5045003;28;20080;-85
2022/06/03 21:29:41;;;;;;;8.48;4.80;;;13.60;99.90;;;;;;5044629;28;20045;-85
2022/06/03 21:32:45;;;;;;;10.82;5.53;;;13.60;99.90;;;;;;5034277;28;20456;-85
2022/06/03 21:35:34;;;;;;;10.63;5.40;;;13.50;99.90;;;;;;5063477;28;20052;-86
2022/06/03 21:38:25;;;;;;;9.75;5.03;;;13.50;99.90;;;;;;5047051;28;20091;-86
2022/06/03 21:41:20;;;;;;;11.57;5.38;;;13.40;99.90;;;;;;5040604;28;20049;-85
2022/06/03 21:43:55;;;;;;;8.50;5.43;;;13.40;99.90;;;;;;5048109;28;20119;-85
2022/06/03 21:46:29;;;;;;;7.93;4.57;;;13.30;99.90;;;;;;5055935;28;20037;-86
2022/06/03 21:49:21;;;;;;;9.15;5.88;;;13.30;99.90;;;;;;5055524;28;20069;-86
2022/06/03 21:51:56;;;;;;;10.88;6.70;;;13.20;99.90;;;;;;5052277;28;20059;-85
2022/06/03 21:54:40;;;;;;;9.57;6.10;;;13.20;99.90;;;;;;5061831;28;20127;-85
2022/06/03 21:57:23;;;;;;;13.05;6.78;;;13.10;99.90;;;;;;5062972;28;20040;-85
2022/06/03 22:00:26;;;;;;;9.90;6.47;;;13.10;99.90;;;;;;5058865;28;20128;-85
2022/06/03 22:02:52;;;;;;;10.48;6.25;;;13.10;99.90;;;;;;5052776;28;20127;-85
2022/06/03 22:05:18;;;;;;;11.25;6.32;;;13.00;99.90;;;;;;5046873;28;20110;-86
2022/06/03 22:07:45;;;;;;;12.57;6.57;;;13.00;99.90;;;;;;5039559;28;20087;-84
2022/06/03 22:10:13;;;;;;;12.25;6.30;;;12.90;99.90;;;;;;5058346;28;20053;-85
2022/06/03 22:12:43;;;;;;;13.48;6.25;;;12.90;99.90;;;;;;5052668;28;20059;-85
2022/06/03 22:15:21;;;;;;;10.25;6.10;;;12.90;99.90;;;;;;5043787;28;20076;-85
2022/06/03 22:17:47;;;;;;;13.45;6.63;;;12.80;99.90;;;;;;5060078;28;20131;-85
2022/06/03 22:20:18;;;;;;;12.57;6.03;;;12.80;99.90;;;;;;5063416;28;20135;-85
2022/06/03 22:22:43;;;;;;;9.90;5.22;;;12.80;99.90;;;;;;5068422;28;20049;-85
2022/06/03 22:25:10;;;;;;;12.75;5.55;;;12.80;99.90;;;;;;5054991;28;20044;-85
2022/06/03 22:28:21;;;;;;;11.40;6.32;;;12.70;99.90;;;;;;5061639;28;20068;-85
2022/06/03 22:30:48;;;;;;;12.35;5.90;;;12.70;99.90;;;;;;5047548;28;20407;-84
2022/06/03 22:33:28;;;;;;;10.27;6.22;;;12.70;99.90;;;;;;5051978;28;20045;-85
2022/06/03 22:36:04;;;;;;;12.30;6.20;;;12.70;99.90;;;;;;5069266;28;20391;-85
2022/06/03 22:38:59;;;;;;;10.73;5.78;;;12.70;99.90;;;;;;5038480;28;20056;-85
2022/06/03 22:41:57;;;;;;;11.10;5.45;;;12.70;99.90;;;;;;5045848;28;20069;-85
2022/06/03 22:44:23;;;;;;;11.45;5.90;;;12.70;99.90;;;;;;5056436;28;20049;-85
2022/06/03 22:46:52;;;;;;;8.68;5.65;;;12.60;99.90;;;;;;5043236;28;20047;-85
2022/06/03 22:49:20;;;;;;;11.35;6.05;;;12.60;99.90;;;;;;5049201;28;20075;-85
2022/06/03 22:51:47;;;;;;;8.73;5.85;;;12.50;99.90;;;;;;5049151;28;20120;-85
2022/06/03 22:54:16;;;;;;;13.35;6.55;;;12.50;99.90;;;;;;5057721;28;20506;-84
2022/06/03 22:56:41;;;;;;;10.35;5.70;;;12.40;99.90;;;;;;5053255;28;20037;-84
2022/06/03 22:59:07;;;;;;;14.25;5.60;;;12.40;99.90;;;;;;5055491;28;20098;-85
2022/06/03 23:01:36;;;;;;;11.65;5.78;;;12.30;99.90;;;;;;5059859;28;20478;-84
2022/06/03 23:04:03;;;;;;;9.00;4.90;;;12.40;99.90;;;;;;5063506;28;20049;-85
2022/06/03 23:06:29;;;;;;;10.00;5.47;;;12.40;99.90;;;;;;5076010;28;20080;-85
2022/06/03 23:08:55;;;;;;;12.45;5.80;;;12.40;99.90;;;;;;5047484;28;20048;-85
2022/06/03 23:11:21;;;;;;;9.20;5.28;;;12.30;99.90;;;;;;5066839;28;20041;-85
2022/06/03 23:13:48;;;;;;;9.88;5.65;;;12.30;99.90;;;;;;5062702;28;20429;-85
2022/06/03 23:16:15;;;;;;;13.45;5.90;;;12.30;99.90;;;;;;5067437;28;20106;-84
2022/06/03 23:18:43;;;;;;;13.82;5.20;;;12.20;99.90;;;;;;5035757;28;20148;-85
2022/06/03 23:21:12;;;;;;;9.30;5.75;;;12.20;99.90;;;;;;5050995;28;20087;-85
2022/06/03 23:23:40;;;;;;;10.18;5.10;;;12.10;99.90;;;;;;5074774;28;20048;-84
2022/06/03 23:26:18;;;;;;;8.95;4.60;;;12.10;99.90;;;;;;5051067;28;20041;-85
2022/06/03 23:28:45;;;;;;;10.43;5.55;;;12.10;99.90;;;;;;5065914;28;20040;-84
2022/06/03 23:31:13;;;;;;;10.75;5.65;;;12.10;99.90;;;;;;5073933;28;20049;-84
2022/06/03 23:33:40;;;;;;;10.60;5.22;;;12.10;99.90;;;;;;5068598;28;20409;-85
2022/06/03 23:36:07;;;;;;;9.80;4.68;;;12.10;99.90;;;;;;5060633;28;20102;-84
2022/06/03 23:38:32;;;;;;;14.45;5.20;;;12.10;99.90;;;;;;5075201;28;20040;-85
2022/06/03 23:40:58;;;;;;;8.43;4.75;;;12.10;99.90;;;;;;5063852;28;20033;-85
2022/06/03 23:46:10;;;;;;;10.70;5.05;;;12.10;99.90;;;;;;5064337;28;20053;-85
2022/06/03 23:48:36;;;;;;;9.93;5.30;;;12.00;99.90;;;;;;5060416;28;20483;-84
2022/06/03 23:51:03;;;;;;;9.68;5.53;;;12.00;99.90;;;;;;5054102;28;20043;-84
2022/06/03 23:53:30;;;;;;;8.85;5.18;;;12.00;99.90;;;;;;5065248;28;20429;-84
2022/06/03 23:55:57;;;;;;;11.88;4.63;;;12.00;99.90;;;;;;5059959;28;20078;-84
2022/06/03 23:58:25;;;;;;;12.40;4.95;;;11.90;99.90;;;;;;5043606;28;20049;-85
